CheckWX is a tool to help pilots better visualize weather data.  It is not intended as a substitute for an official pre-flight weather briefing.

10:30:46 UTC

CYAB METAR
Arctic Bay
Arctic Bay, Canada
Current

13 hours ago

CYAB 152200Z 28010KT 5SM BR FEW004 FEW007 FEW015 BKN024 BKN035 08/07 A2970 RMK SC1SC1SC1SC4SC1 SC TR VIS SE 10 SW N 10 CIG ESTD RA GAUGE 0.8 MM LAST STFD OBS/NXT 161100Z SLP059
Observed
Jul-15 @ 22:00 UTC
Wind
  • 280° at 10 KTS
Visibility
5 SM
Flight Rules
MVFR
Conditions
Mist
Cloud Levels
  • Few at 400' AGL
  • Few at 700' AGL
  • Few at 1,500' AGL
  • Broken at 2,400' AGL
Temperature
C / 46°F
Dewpoint
C / 45°F
Humidity
93%
Altimeter
29.7" Hg
Pressure
1005.72 hPa
Previous

14 hours ago

CYAB 152100Z 27010KT 5SM BR FEW005 FEW008 FEW015 BKN025 BKN035 09/07 A2970 RMK SC1SC1SC1SC5SC1 SC TR SC TR VIS SW N 10 CIG ESTD SLP059
Observed
Jul-15 @ 21:00 UTC
Wind
  • 270° at 10 KTS
Visibility
5 SM
Flight Rules
MVFR
Conditions
Mist
Cloud Levels
  • Few at 500' AGL
  • Few at 800' AGL
  • Few at 1,500' AGL
  • Broken at 2,500' AGL
Temperature
C / 48°F
Dewpoint
C / 45°F
Humidity
87%
Altimeter
29.7" Hg
Pressure
1005.72 hPa
Previous

14 hours ago

CYAB 152030Z 31010KT 5SM BR FEW004 FEW007 SCT015 BKN024 BKN035 10/07 A2969 RMK SC1SC1SC2SC3SC1 SC TR SC TR VIS SE 10 SW N 10 CIG ESTD SLP057
Observed
Jul-15 @ 20:30 UTC
Wind
  • 310° at 10 KTS
Visibility
5 SM
Flight Rules
MVFR
Conditions
Mist
Cloud Levels
  • Few at 400' AGL
  • Few at 700' AGL
  • Scattered at 1,500' AGL
  • Broken at 2,400' AGL
Temperature
10°C / 50°F
Dewpoint
C / 45°F
Humidity
82%
Altimeter
29.69" Hg
Pressure
1005.42 hPa